Time;durP1;ratioP1;P1;durP2;ratioP2;P2;SDS_P1;SDS_P2;PMS_P1;PMS_P2;Temp;Humidity;BMP_temperature;BMP_pressure;BME280_temperature;BME280_humidity;BME280_pressure;Samples;Min_cycle;Max_cycle;Signal;HPM_P1;HPM_P2
2021/07/04 00:02:13;;;;;;;29.88;25.30;;;;;;;;;;5135563;27;20095;-73
2021/07/04 00:04:39;;;;;;;28.88;24.02;;;;;;;;;;5134214;27;20526;-73
2021/07/04 00:07:05;;;;;;;37.17;27.88;;;;;;;;;;5134085;27;20047;-73
2021/07/04 00:09:32;;;;;;;35.58;27.95;;;;;;;;;;5133623;27;20494;-73
2021/07/04 00:11:58;;;;;;;30.60;25.48;;;;;;;;;;5135326;27;20104;-73
2021/07/04 00:14:24;;;;;;;32.38;26.85;;;;;;;;;;5134873;27;20039;-73
2021/07/04 00:16:51;;;;;;;37.58;27.30;;;;;;;;;;5134708;27;20074;-73
2021/07/04 00:19:17;;;;;;;33.75;27.48;;;;;;;;;;5135322;27;20047;-73
2021/07/04 00:21:43;;;;;;;34.92;28.60;;;;;;;;;;5134657;27;20043;-73
2021/07/04 00:24:09;;;;;;;29.80;24.95;;;;;;;;;;5134874;27;20065;-73
2021/07/04 00:26:35;;;;;;;29.52;24.23;;;;;;;;;;5132252;27;20058;-73
2021/07/04 00:29:02;;;;;;;34.63;26.00;;;;;;;;;;5134528;27;20054;-73
2021/07/04 00:31:28;;;;;;;32.47;26.40;;;;;;;;;;5134899;27;20046;-72
2021/07/04 00:33:54;;;;;;;30.38;25.80;;;;;;;;;;5133645;27;20062;-73
2021/07/04 00:36:20;;;;;;;31.02;25.67;;;;;;;;;;5134652;27;20039;-73
2021/07/04 00:38:47;;;;;;;28.17;25.02;;;;;;;;;;5134136;27;20050;-72
2021/07/04 00:41:13;;;;;;;39.65;28.17;;;;;;;;;;5134359;27;20113;-73
2021/07/04 00:43:39;;;;;;;42.13;30.77;;;;;;;;;;5132611;27;20049;-73
2021/07/04 00:46:06;;;;;;;39.13;30.25;;;;;;;;;;5134672;27;20047;-73
2021/07/04 00:48:32;;;;;;;34.13;27.70;;;;;;;;;;5133736;27;20039;-72
2021/07/04 00:50:58;;;;;;;46.10;33.53;;;;;;;;;;5134612;27;20047;-73
2021/07/04 00:53:24;;;;;;;33.00;27.52;;;;;;;;;;5134486;27;20047;-74
2021/07/04 00:55:50;;;;;;;42.45;32.15;;;;;;;;;;5133820;27;20039;-73
2021/07/04 00:58:17;;;;;;;42.35;31.40;;;;;;;;;;5134204;27;20047;-73
2021/07/04 01:00:43;;;;;;;36.65;28.88;;;;;;;;;;5133753;27;20039;-73
2021/07/04 01:03:10;;;;;;;43.88;31.23;;;;;;;;;;5133834;27;20114;-73
2021/07/04 01:05:38;;;;;;;43.72;32.03;;;;;;;;;;5133946;27;20099;-73
2021/07/04 01:08:05;;;;;;;52.42;35.63;;;;;;;;;;5134159;27;20043;-73
2021/07/04 01:10:33;;;;;;;58.10;38.17;;;;;;;;;;5132590;27;20031;-71
2021/07/04 01:13:00;;;;;;;45.95;33.88;;;;;;;;;;5134039;27;20043;-73
2021/07/04 01:15:27;;;;;;;60.47;37.35;;;;;;;;;;5133944;27;20035;-73
2021/07/04 01:17:58;;;;;;;42.95;29.48;;;;;;;;;;5132313;27;20533;-73
2021/07/04 01:20:26;;;;;;;36.47;27.73;;;;;;;;;;5134127;27;20062;-73
2021/07/04 01:22:59;;;;;;;47.25;34.15;;;;;;;;;;5133269;27;20039;-73
2021/07/04 01:25:26;;;;;;;52.28;35.35;;;;;;;;;;5133573;27;20043;-73
2021/07/04 01:27:52;;;;;;;47.22;34.20;;;;;;;;;;5132337;27;20043;-74
2021/07/04 01:30:20;;;;;;;37.97;28.83;;;;;;;;;;5133879;27;20141;-73
2021/07/04 01:32:46;;;;;;;47.83;33.08;;;;;;;;;;5133122;27;20051;-72
2021/07/04 01:35:12;;;;;;;46.17;33.42;;;;;;;;;;5133725;27;20504;-73
2021/07/04 01:37:40;;;;;;;53.78;35.88;;;;;;;;;;5132896;27;20043;-72
2021/07/04 01:40:07;;;;;;;41.60;31.23;;;;;;;;;;5132686;27;20099;-72
2021/07/04 01:42:33;;;;;;;42.88;32.38;;;;;;;;;;5133759;27;20078;-73
2021/07/04 01:44:59;;;;;;;40.88;31.92;;;;;;;;;;5131876;27;20171;-73
2021/07/04 01:47:26;;;;;;;46.30;32.85;;;;;;;;;;5133571;27;20046;-73
2021/07/04 01:49:52;;;;;;;51.00;35.15;;;;;;;;;;5131918;27;20050;-73
2021/07/04 01:52:18;;;;;;;53.08;35.45;;;;;;;;;;5132261;27;20478;-73
2021/07/04 01:54:44;;;;;;;52.72;36.45;;;;;;;;;;5133078;27;20057;-72
2021/07/04 01:57:14;;;;;;;47.28;34.17;;;;;;;;;;5133546;27;20039;-73
2021/07/04 01:59:43;;;;;;;53.28;36.08;;;;;;;;;;5132663;27;20107;-72
2021/07/04 02:02:10;;;;;;;46.00;32.05;;;;;;;;;;5133671;27;20100;-73
2021/07/04 02:04:41;;;;;;;38.42;28.65;;;;;;;;;;5133194;28;20463;-73
2021/07/04 02:07:13;;;;;;;49.10;34.13;;;;;;;;;;5133245;27;20055;-73
2021/07/04 02:09:42;;;;;;;35.45;28.63;;;;;;;;;;5132676;28;20417;-72
2021/07/04 02:12:09;;;;;;;46.25;31.90;;;;;;;;;;5133568;28;20050;-73
2021/07/04 02:14:35;;;;;;;37.25;29.05;;;;;;;;;;5133324;27;20039;-73
2021/07/04 02:17:01;;;;;;;64.25;37.97;;;;;;;;;;5132355;28;20043;-73
2021/07/04 02:19:34;;;;;;;61.13;37.50;;;;;;;;;;5133112;28;20486;-73
2021/07/04 02:22:01;;;;;;;49.13;34.50;;;;;;;;;;5132968;27;20118;-73
2021/07/04 02:24:27;;;;;;;51.88;34.15;;;;;;;;;;5132153;27;20114;-73
2021/07/04 02:26:53;;;;;;;38.78;29.63;;;;;;;;;;5132391;28;20035;-73
2021/07/04 02:29:20;;;;;;;53.03;35.17;;;;;;;;;;5133193;27;20095;-72
2021/07/04 02:31:46;;;;;;;39.60;28.48;;;;;;;;;;5132564;28;20122;-72
2021/07/04 02:34:13;;;;;;;34.67;27.80;;;;;;;;;;5132841;28;20042;-73
2021/07/04 02:36:39;;;;;;;50.10;33.97;;;;;;;;;;5131889;27;20043;-73
2021/07/04 02:39:05;;;;;;;48.28;33.65;;;;;;;;;;5132594;28;20039;-73
2021/07/04 02:41:32;;;;;;;57.92;35.83;;;;;;;;;;5133125;27;20043;-73
2021/07/04 02:43:58;;;;;;;48.05;34.58;;;;;;;;;;5131116;28;20047;-73
2021/07/04 02:46:24;;;;;;;45.30;32.25;;;;;;;;;;5132785;27;20471;-73
2021/07/04 02:48:51;;;;;;;51.70;34.72;;;;;;;;;;5131073;27;20477;-73
2021/07/04 02:51:17;;;;;;;55.30;38.47;;;;;;;;;;5136211;27;20043;-73
2021/07/04 02:53:44;;;;;;;55.53;36.75;;;;;;;;;;5136302;27;20043;-72
2021/07/04 02:56:10;;;;;;;51.85;35.33;;;;;;;;;;5136626;27;20039;-73
2021/07/04 02:58:36;;;;;;;58.63;37.88;;;;;;;;;;5136784;27;20054;-73
2021/07/04 03:01:03;;;;;;;57.25;39.28;;;;;;;;;;5136201;27;20489;-73
2021/07/04 03:03:29;;;;;;;60.80;38.88;;;;;;;;;;5135438;27;20039;-71
2021/07/04 03:05:56;;;;;;;43.20;33.55;;;;;;;;;;5134961;27;20047;-73
2021/07/04 03:08:23;;;;;;;51.63;34.33;;;;;;;;;;5135167;27;20046;-73
2021/07/04 03:10:50;;;;;;;56.33;38.90;;;;;;;;;;5136007;27;20140;-73
2021/07/04 03:13:16;;;;;;;51.67;34.85;;;;;;;;;;5136539;27;20039;-72
2021/07/04 03:15:43;;;;;;;57.97;39.03;;;;;;;;;;5136292;27;20122;-74
2021/07/04 03:18:09;;;;;;;59.45;37.17;;;;;;;;;;5134552;27;20050;-72
2021/07/04 03:20:36;;;;;;;49.78;34.17;;;;;;;;;;5135188;27;20041;-73
2021/07/04 03:23:02;;;;;;;56.35;38.88;;;;;;;;;;5134446;27;20129;-73
2021/07/04 03:25:28;;;;;;;51.53;34.28;;;;;;;;;;5136332;27;20039;-74
2021/07/04 03:27:54;;;;;;;68.75;40.67;;;;;;;;;;5134091;27;20130;-73
2021/07/04 03:30:21;;;;;;;50.63;35.92;;;;;;;;;;5136299;27;20113;-73
2021/07/04 03:32:49;;;;;;;57.88;38.10;;;;;;;;;;5135981;27;20062;-72
2021/07/04 03:35:15;;;;;;;48.28;34.35;;;;;;;;;;5136096;27;20039;-73
2021/07/04 03:37:42;;;;;;;54.25;37.05;;;;;;;;;;5117894;27;20078;-73
2021/07/04 03:40:10;;;;;;;70.45;42.15;;;;;;;;;;5135147;27;20251;-74
2021/07/04 03:42:37;;;;;;;76.90;43.67;;;;;;;;;;5135860;27;20061;-74
2021/07/04 03:45:04;;;;;;;72.03;42.80;;;;;;;;;;5133830;27;20039;-73
2021/07/04 03:47:31;;;;;;;67.10;42.13;;;;;;;;;;5136017;27;20493;-73
2021/07/04 03:49:57;;;;;;;71.07;43.33;;;;;;;;;;5135026;27;20123;-74
2021/07/04 03:52:23;;;;;;;82.50;44.38;;;;;;;;;;5135683;27;20413;-74
2021/07/04 03:54:50;;;;;;;76.75;43.60;;;;;;;;;;5135708;27;20405;-74
2021/07/04 03:57:22;;;;;;;63.92;40.80;;;;;;;;;;5135905;27;20047;-73
2021/07/04 03:59:54;;;;;;;48.95;34.55;;;;;;;;;;5135664;27;20054;-74
2021/07/04 04:02:20;;;;;;;61.33;39.05;;;;;;;;;;5135512;27;20043;-73
2021/07/04 04:04:48;;;;;;;60.88;38.70;;;;;;;;;;5134959;27;20065;-74
2021/07/04 04:07:35;;;;;;;60.50;39.17;;;;;;;;;;5134357;27;20050;-73
2021/07/04 04:10:01;;;;;;;64.03;40.78;;;;;;;;;;5134535;27;20490;-73
2021/07/04 04:12:27;;;;;;;72.70;42.97;;;;;;;;;;5135380;27;20047;-73
2021/07/04 04:14:54;;;;;;;69.05;41.90;;;;;;;;;;5134776;27;20047;-73
2021/07/04 04:17:20;;;;;;;85.75;45.45;;;;;;;;;;5135368;27;20045;-73
2021/07/04 04:19:46;;;;;;;111.13;51.85;;;;;;;;;;5135205;27;20035;-73
2021/07/04 04:22:13;;;;;;;93.32;47.00;;;;;;;;;;5134292;27;20741;-74
2021/07/04 04:24:40;;;;;;;88.60;46.40;;;;;;;;;;5134766;27;20047;-73
2021/07/04 04:27:06;;;;;;;77.13;43.05;;;;;;;;;;5134335;27;20042;-74
2021/07/04 04:29:33;;;;;;;88.00;46.70;;;;;;;;;;5134522;27;20401;-73
2021/07/04 04:31:59;;;;;;;89.20;45.75;;;;;;;;;;5134244;27;20139;-73
2021/07/04 04:34:25;;;;;;;107.53;50.90;;;;;;;;;;5134724;27;20046;-74
2021/07/04 04:36:51;;;;;;;98.25;48.70;;;;;;;;;;5116777;27;20043;-73
2021/07/04 04:39:20;;;;;;;93.70;48.17;;;;;;;;;;5132695;27;20040;-73
2021/07/04 04:41:46;;;;;;;107.82;49.53;;;;;;;;;;5133796;27;20122;-73
2021/07/04 04:44:12;;;;;;;107.68;52.00;;;;;;;;;;5134034;27;20370;-73
2021/07/04 04:46:38;;;;;;;80.85;44.45;;;;;;;;;;5133639;27;20614;-73
2021/07/04 04:49:05;;;;;;;100.25;48.85;;;;;;;;;;5133814;27;20046;-74
2021/07/04 04:51:31;;;;;;;93.85;49.83;;;;;;;;;;5133342;27;20039;-73
2021/07/04 04:53:58;;;;;;;103.00;49.92;;;;;;;;;;5133861;27;20050;-73
2021/07/04 04:56:24;;;;;;;80.13;44.25;;;;;;;;;;5134586;27;20046;-74
2021/07/04 04:58:51;;;;;;;77.15;45.00;;;;;;;;;;5133580;27;20442;-73
2021/07/04 05:01:17;;;;;;;62.35;39.58;;;;;;;;;;5133578;27;20074;-73
2021/07/04 05:03:44;;;;;;;84.18;47.78;;;;;;;;;;5133709;27;20062;-74
2021/07/04 05:06:11;;;;;;;70.13;41.95;;;;;;;;;;5133707;27;20074;-74
2021/07/04 05:08:37;;;;;;;63.83;41.55;;;;;;;;;;5134380;27;20474;-73
2021/07/04 05:11:07;;;;;;;56.78;38.15;;;;;;;;;;5133773;27;20092;-72
2021/07/04 05:13:33;;;;;;;52.15;36.22;;;;;;;;;;5133573;27;20050;-73
2021/07/04 05:16:00;;;;;;;59.30;39.90;;;;;;;;;;5133683;27;20043;-72
2021/07/04 05:18:26;;;;;;;53.92;38.67;;;;;;;;;;5133993;27;20142;-73
2021/07/04 05:20:52;;;;;;;49.33;37.03;;;;;;;;;;5133891;27;20049;-74
2021/07/04 05:23:18;;;;;;;45.85;34.50;;;;;;;;;;5133206;27;20213;-73
2021/07/04 05:25:45;;;;;;;48.28;36.22;;;;;;;;;;5133871;27;20059;-74
2021/07/04 05:28:11;;;;;;;43.22;34.33;;;;;;;;;;5133382;27;20121;-73
2021/07/04 05:30:37;;;;;;;47.17;36.70;;;;;;;;;;5133777;27;20043;-74
2021/07/04 05:33:03;;;;;;;44.05;33.00;;;;;;;;;;5133114;27;20050;-74
2021/07/04 05:35:29;;;;;;;46.25;34.75;;;;;;;;;;5133694;27;20043;-74
2021/07/04 05:37:56;;;;;;;43.95;34.65;;;;;;;;;;5133841;27;20043;-74
2021/07/04 05:40:22;;;;;;;42.00;33.75;;;;;;;;;;5133052;27;20047;-73
2021/07/04 05:42:48;;;;;;;43.58;33.92;;;;;;;;;;5133767;27;20039;-73
2021/07/04 05:45:21;;;;;;;39.75;32.28;;;;;;;;;;5131764;27;20496;-73
2021/07/04 05:47:47;;;;;;;36.42;31.50;;;;;;;;;;5132272;27;20447;-73
2021/07/04 05:50:13;;;;;;;38.28;31.92;;;;;;;;;;5132715;27;20118;-73
2021/07/04 05:52:39;;;;;;;38.05;31.25;;;;;;;;;;5133380;27;20042;-74
2021/07/04 05:55:06;;;;;;;37.58;32.00;;;;;;;;;;5131687;27;20039;-74
2021/07/04 05:57:32;;;;;;;44.20;34.72;;;;;;;;;;5132090;27;20378;-73
2021/07/04 05:59:58;;;;;;;39.80;32.80;;;;;;;;;;5133646;28;20068;-73
2021/07/04 06:02:24;;;;;;;40.60;33.97;;;;;;;;;;5132697;27;20047;-73
2021/07/04 06:04:50;;;;;;;37.78;31.60;;;;;;;;;;5131876;27;20066;-73
2021/07/04 06:07:16;;;;;;;42.45;34.63;;;;;;;;;;5131254;28;20390;-73
2021/07/04 06:09:42;;;;;;;40.67;33.60;;;;;;;;;;5133363;28;20377;-74
2021/07/04 06:12:09;;;;;;;43.97;34.15;;;;;;;;;;5132536;27;20050;-73
2021/07/04 06:14:35;;;;;;;41.60;33.97;;;;;;;;;;5132207;28;20035;-73
2021/07/04 06:17:01;;;;;;;41.00;33.20;;;;;;;;;;5133022;27;20062;-73
2021/07/04 06:19:27;;;;;;;41.33;33.92;;;;;;;;;;5132518;27;20036;-73
2021/07/04 06:21:54;;;;;;;41.90;32.97;;;;;;;;;;5133269;27;20114;-74
2021/07/04 06:24:20;;;;;;;41.72;32.80;;;;;;;;;;5132535;27;20118;-73
2021/07/04 06:26:46;;;;;;;43.15;32.92;;;;;;;;;;5137257;27;20135;-74
2021/07/04 06:29:12;;;;;;;40.90;34.35;;;;;;;;;;5135601;27;20093;-73
2021/07/04 06:31:38;;;;;;;39.97;33.55;;;;;;;;;;5137307;27;20043;-73
2021/07/04 06:34:04;;;;;;;40.67;34.05;;;;;;;;;;5136918;27;20042;-74
2021/07/04 06:36:31;;;;;;;43.53;33.08;;;;;;;;;;5135528;27;20035;-74
2021/07/04 06:38:57;;;;;;;36.75;30.48;;;;;;;;;;5137061;27;20047;-74
2021/07/04 06:41:24;;;;;;;43.63;34.53;;;;;;;;;;5135231;27;20490;-74
2021/07/04 06:43:50;;;;;;;38.85;32.45;;;;;;;;;;5137321;27;20043;-74
2021/07/04 06:46:16;;;;;;;39.92;32.72;;;;;;;;;;5136307;27;20043;-73
2021/07/04 06:48:43;;;;;;;38.53;32.55;;;;;;;;;;5135782;27;20387;-74
2021/07/04 06:51:09;;;;;;;39.53;32.08;;;;;;;;;;5136421;27;20474;-73
2021/07/04 06:53:36;;;;;;;37.03;31.25;;;;;;;;;;5137236;27;20051;-74
2021/07/04 06:56:03;;;;;;;39.53;31.73;;;;;;;;;;5136621;27;20043;-75
2021/07/04 06:58:29;;;;;;;35.45;29.70;;;;;;;;;;5134965;27;20284;-74
2021/07/04 07:00:55;;;;;;;39.17;30.52;;;;;;;;;;5136563;27;20092;-74
2021/07/04 07:03:21;;;;;;;34.42;29.92;;;;;;;;;;5134611;27;20050;-73
2021/07/04 07:05:47;;;;;;;34.70;30.15;;;;;;;;;;5135455;27;20417;-74
2021/07/04 07:08:13;;;;;;;31.83;27.63;;;;;;;;;;5134485;27;20104;-73
2021/07/04 07:10:40;;;;;;;33.83;28.25;;;;;;;;;;5136653;27;20118;-73
2021/07/04 07:13:06;;;;;;;31.23;26.80;;;;;;;;;;5136533;27;20050;-74
2021/07/04 07:15:33;;;;;;;29.42;25.83;;;;;;;;;;5134578;27;20096;-73
2021/07/04 07:17:59;;;;;;;32.55;26.63;;;;;;;;;;5136254;27;20508;-73
2021/07/04 07:20:26;;;;;;;30.60;26.40;;;;;;;;;;5134694;27;20474;-74
2021/07/04 07:22:52;;;;;;;26.60;23.83;;;;;;;;;;5134913;27;20091;-73
2021/07/04 07:25:18;;;;;;;26.48;23.65;;;;;;;;;;5134549;27;20078;-74
2021/07/04 07:27:44;;;;;;;25.05;22.42;;;;;;;;;;5134893;27;20100;-74
2021/07/04 07:30:11;;;;;;;24.38;21.88;;;;;;;;;;5134826;27;20050;-74
2021/07/04 07:32:38;;;;;;;23.33;20.83;;;;;;;;;;5135446;27;20039;-74
2021/07/04 07:35:09;;;;;;;22.83;20.38;;;;;;;;;;5134726;27;20043;-74
2021/07/04 07:37:35;;;;;;;20.98;18.88;;;;;;;;;;5134079;27;20039;-74
2021/07/04 07:40:02;;;;;;;20.58;18.55;;;;;;;;;;5135921;27;20039;-74
2021/07/04 07:42:28;;;;;;;20.33;18.15;;;;;;;;;;5134132;27;20099;-74
2021/07/04 07:44:54;;;;;;;19.80;17.40;;;;;;;;;;5135500;27;20045;-75
2021/07/04 07:47:20;;;;;;;19.65;17.65;;;;;;;;;;5135381;27;20035;-74
2021/07/04 07:49:47;;;;;;;18.15;16.45;;;;;;;;;;5135804;27;20078;-74
2021/07/04 07:52:13;;;;;;;18.77;16.88;;;;;;;;;;5135657;27;20050;-75
2021/07/04 07:54:39;;;;;;;16.58;14.82;;;;;;;;;;5133888;27;20039;-75
2021/07/04 07:57:07;;;;;;;17.80;16.13;;;;;;;;;;5135600;27;20046;-74
2021/07/04 07:59:34;;;;;;;18.38;16.48;;;;;;;;;;5133516;27;20443;-75
2021/07/04 08:02:00;;;;;;;17.70;15.90;;;;;;;;;;5134572;27;20122;-74
2021/07/04 08:04:27;;;;;;;16.27;14.60;;;;;;;;;;5134512;27;20066;-74
2021/07/04 08:06:53;;;;;;;14.45;13.05;;;;;;;;;;5135741;27;20035;-74
2021/07/04 08:09:20;;;;;;;13.00;11.80;;;;;;;;;;5134772;27;20039;-73
2021/07/04 08:11:46;;;;;;;13.18;11.88;;;;;;;;;;5133926;27;20050;-74
2021/07/04 08:14:12;;;;;;;11.70;10.57;;;;;;;;;;5135365;27;20038;-74
2021/07/04 08:16:38;;;;;;;13.18;11.88;;;;;;;;;;5133548;27;20353;-74
2021/07/04 08:19:05;;;;;;;11.95;10.85;;;;;;;;;;5135163;27;20047;-75
2021/07/04 08:21:31;;;;;;;12.27;10.48;;;;;;;;;;5134563;27;20093;-74
2021/07/04 08:23:58;;;;;;;11.80;10.70;;;;;;;;;;5135013;27;20051;-74
2021/07/04 08:26:24;;;;;;;11.50;10.40;;;;;;;;;;5134079;27;20074;-73
2021/07/04 08:28:50;;;;;;;11.75;10.55;;;;;;;;;;5135141;27;20504;-73
2021/07/04 08:31:16;;;;;;;12.70;11.48;;;;;;;;;;5135128;27;20417;-74
2021/07/04 08:33:43;;;;;;;11.73;10.65;;;;;;;;;;5133025;27;20118;-74
2021/07/04 08:36:09;;;;;;;11.52;10.43;;;;;;;;;;5134951;27;20039;-74
2021/07/04 08:38:35;;;;;;;12.02;10.93;;;;;;;;;;5133079;27;20082;-73
2021/07/04 08:41:01;;;;;;;11.98;10.88;;;;;;;;;;5134373;27;20046;-74
2021/07/04 08:43:29;;;;;;;11.73;10.63;;;;;;;;;;5132686;27;20039;-73
2021/07/04 08:45:55;;;;;;;12.40;11.20;;;;;;;;;;5134852;27;20066;-74
2021/07/04 08:48:22;;;;;;;13.48;12.27;;;;;;;;;;5133464;27;20042;-73
2021/07/04 08:50:48;;;;;;;13.18;11.93;;;;;;;;;;5133308;27;20039;-74
2021/07/04 08:53:14;;;;;;;13.23;12.05;;;;;;;;;;5133356;27;20047;-74
2021/07/04 08:55:42;;;;;;;14.32;12.82;;;;;;;;;;5133482;27;20047;-73
2021/07/04 08:58:08;;;;;;;12.80;11.60;;;;;;;;;;5134645;27;20504;-74
2021/07/04 09:00:34;;;;;;;13.35;12.05;;;;;;;;;;5133929;27;20055;-73
2021/07/04 09:03:01;;;;;;;13.15;11.95;;;;;;;;;;5115696;27;20035;-74
2021/07/04 09:05:42;;;;;;;14.48;12.95;;;;;;;;;;5131763;27;20096;-72
2021/07/04 09:08:18;;;;;;;14.38;13.05;;;;;;;;;;5134289;27;20110;-74
2021/07/04 09:10:44;;;;;;;13.60;12.40;;;;;;;;;;5132352;27;20878;-73
2021/07/04 09:13:27;;;;;;;14.77;13.45;;;;;;;;;;5134334;27;20074;-74
2021/07/04 09:16:08;;;;;;;14.82;13.43;;;;;;;;;;5134405;27;20110;-74
2021/07/04 09:18:34;;;;;;;14.98;13.57;;;;;;;;;;5132157;27;20058;-73
2021/07/04 09:21:01;;;;;;;14.30;12.90;;;;;;;;;;5134146;27;20035;-74
2021/07/04 09:23:33;;;;;;;14.80;13.45;;;;;;;;;;5133474;27;20043;-72
2021/07/04 09:26:00;;;;;;;16.45;14.85;;;;;;;;;;5134055;27;20054;-74
2021/07/04 09:28:26;;;;;;;16.42;14.82;;;;;;;;;;5133703;27;20051;-73
2021/07/04 09:30:57;;;;;;;16.05;14.65;;;;;;;;;;5132582;27;20049;-73
2021/07/04 09:33:30;;;;;;;16.95;15.45;;;;;;;;;;5133505;27;20539;-73
2021/07/04 09:35:57;;;;;;;;;;;;;;;;;;5133235;27;20039;-73
2021/07/04 09:38:24;;;;;;;16.17;14.55;;;;;;;;;;5133578;27;20271;-73
2021/07/04 09:40:50;;;;;;;16.60;15.10;;;;;;;;;;5133088;27;20061;-74
2021/07/04 09:43:18;;;;;;;18.88;17.08;;;;;;;;;;5132358;27;20047;-74
2021/07/04 09:45:49;;;;;;;18.35;16.70;;;;;;;;;;5133084;27;20401;-74
2021/07/04 09:48:16;;;;;;;18.42;16.83;;;;;;;;;;5133723;27;20481;-74
2021/07/04 09:50:44;;;;;;;18.45;16.75;;;;;;;;;;5132834;27;20043;-74
2021/07/04 09:53:10;;;;;;;18.20;16.40;;;;;;;;;;5133346;27;20429;-74
2021/07/04 09:55:37;;;;;;;18.88;17.13;;;;;;;;;;5132766;27;20054;-73
2021/07/04 09:58:10;;;;;;;18.70;16.83;;;;;;;;;;5133239;27;20043;-73
2021/07/04 10:00:40;;;;;;;19.10;17.30;;;;;;;;;;5131612;27;20046;-73
2021/07/04 10:03:20;;;;;;;17.83;16.15;;;;;;;;;;5132134;27;20039;-73
2021/07/04 10:05:55;;;;;;;17.63;16.02;;;;;;;;;;5132556;27;20055;-73
2021/07/04 10:08:23;;;;;;;17.48;15.75;;;;;;;;;;5132072;28;20054;-73
2021/07/04 10:10:50;;;;;;;17.33;15.52;;;;;;;;;;5132339;27;20039;-73
2021/07/04 10:13:17;;;;;;;18.98;17.17;;;;;;;;;;5133530;28;20516;-74
2021/07/04 10:15:43;;;;;;;18.02;16.23;;;;;;;;;;5132980;28;20041;-73
2021/07/04 10:18:10;;;;;;;18.27;16.48;;;;;;;;;;5133256;28;20481;-73
2021/07/04 10:20:36;;;;;;;17.52;15.93;;;;;;;;;;5132672;28;20070;-73
2021/07/04 10:23:06;;;;;;;19.13;16.45;;;;;;;;;;5133070;28;20397;-73
2021/07/04 10:25:33;;;;;;;18.48;16.52;;;;;;;;;;5131398;27;20039;-72
2021/07/04 10:28:00;;;;;;;19.23;17.42;;;;;;;;;;5132139;28;20505;-73
2021/07/04 10:30:26;;;;;;;18.83;16.92;;;;;;;;;;5131968;28;20039;-73
2021/07/04 10:33:06;;;;;;;17.13;15.43;;;;;;;;;;5132427;27;20040;-73
2021/07/04 10:35:32;;;;;;;17.67;15.98;;;;;;;;;;5133235;27;20429;-73
2021/07/04 10:38:12;;;;;;;18.55;16.75;;;;;;;;;;5132350;27;20039;-73
2021/07/04 10:40:38;;;;;;;18.20;16.40;;;;;;;;;;5132673;27;20046;-74
2021/07/04 10:43:04;;;;;;;17.75;16.05;;;;;;;;;;5132970;28;20067;-74
2021/07/04 10:45:32;;;;;;;17.10;15.18;;;;;;;;;;5132969;28;20096;-74
2021/07/04 10:48:18;;;;;;;16.17;14.57;;;;;;;;;;5132416;27;20126;-74
2021/07/04 10:51:03;;;;;;;16.55;14.88;;;;;;;;;;5132203;27;20055;-73
2021/07/04 10:53:42;;;;;;;17.23;15.55;;;;;;;;;;5132807;27;20050;-74
2021/07/04 10:56:27;;;;;;;20.98;18.88;;;;;;;;;;5131601;27;20054;-74
2021/07/04 10:59:05;;;;;;;18.92;17.08;;;;;;;;;;5132227;28;20051;-73
2021/07/04 11:01:51;;;;;;;17.63;15.85;;;;;;;;;;5132842;28;20047;-73
2021/07/04 11:04:33;;;;;;;18.70;16.90;;;;;;;;;;5132596;27;20036;-74
2021/07/04 11:07:00;;;;;;;22.10;19.88;;;;;;;;;;5132228;27;20041;-74
2021/07/04 11:09:59;;;;;;;19.65;16.67;;;;;;;;;;5132970;28;20115;-74
2021/07/04 11:12:25;;;;;;;18.55;16.65;;;;;;;;;;5101667;27;20062;-74
2021/07/04 11:15:10;;;;;;;19.05;17.05;;;;;;;;;;5135606;27;20431;-74
2021/07/04 11:17:54;;;;;;;20.23;18.17;;;;;;;;;;5136278;27;20043;-74
2021/07/04 11:20:21;;;;;;;19.52;17.58;;;;;;;;;;5135326;27;20070;-74
2021/07/04 11:22:54;;;;;;;19.17;17.38;;;;;;;;;;5134450;27;20043;-74
2021/07/04 11:25:22;;;;;;;23.20;16.80;;;;;;;;;;5135109;27;20035;-74
2021/07/04 11:28:06;;;;;;;18.83;17.02;;;;;;;;;;5135187;27;20043;-74
2021/07/04 11:30:33;;;;;;;17.85;15.63;;;;;;;;;;5136369;27;20108;-74
2021/07/04 11:33:17;;;;;;;16.25;14.65;;;;;;;;;;5135366;27;20045;-74
2021/07/04 11:35:43;;;;;;;17.27;15.50;;;;;;;;;;5135099;27;20512;-74
2021/07/04 11:38:20;;;;;;;17.60;15.82;;;;;;;;;;5134872;27;20111;-74
2021/07/04 11:40:47;;;;;;;20.95;18.85;;;;;;;;;;5135599;27;20043;-74
2021/07/04 11:43:20;;;;;;;23.30;20.90;;;;;;;;;;5135974;27;20064;-74
2021/07/04 11:45:47;;;;;;;;;;;;;;;;;;5135705;27;20485;-74
2021/07/04 11:48:13;;;;;;;20.08;18.05;;;;;;;;;;5135678;27;19966;-74
2021/07/04 11:50:53;;;;;;;18.40;16.42;;;;;;;;;;5134439;27;20126;-74
2021/07/04 11:53:20;;;;;;;18.05;16.33;;;;;;;;;;5136150;27;20054;-74
2021/07/04 11:56:00;;;;;;;18.13;16.33;;;;;;;;;;5135283;27;20050;-75
2021/07/04 11:58:27;;;;;;;20.73;18.73;;;;;;;;;;5134546;27;20035;-74
2021/07/04 12:00:53;;;;;;;19.88;17.95;;;;;;;;;;5134855;27;20047;-74
2021/07/04 12:03:21;;;;;;;17.83;16.23;;;;;;;;;;5133931;27;20122;-74
2021/07/04 12:05:47;;;;;;;15.70;14.20;;;;;;;;;;5135106;27;20434;-74
2021/07/04 12:08:13;;;;;;;15.55;13.98;;;;;;;;;;5135365;27;20108;-74
2021/07/04 12:10:50;;;;;;;15.73;14.23;;;;;;;;;;5135361;27;20046;-75
2021/07/04 12:13:16;;;;;;;13.95;12.55;;;;;;;;;;5135019;27;20039;-75
2021/07/04 12:15:49;;;;;;;14.35;13.00;;;;;;;;;;5135153;27;20040;-74
2021/07/04 12:18:16;;;;;;;15.15;13.63;;;;;;;;;;5135128;27;20389;-75
2021/07/04 12:20:43;;;;;;;15.63;14.02;;;;;;;;;;5133990;27;20047;-75
2021/07/04 12:23:12;;;;;;;15.70;14.10;;;;;;;;;;5134365;27;20058;-75
2021/07/04 12:25:42;;;;;;;16.10;14.45;;;;;;;;;;5117284;27;20054;-74
2021/07/04 12:28:13;;;;;;;15.00;13.60;;;;;;;;;;5134387;27;20035;-74
2021/07/04 12:30:41;;;;;;;16.95;15.18;;;;;;;;;;5134979;27;20043;-74
2021/07/04 12:33:15;;;;;;;19.00;14.55;;;;;;;;;;5134181;27;20625;-74
2021/07/04 12:35:55;;;;;;;16.58;14.63;;;;;;;;;;5134918;27;20051;-75
2021/07/04 12:38:30;;;;;;;13.25;11.85;;;;;;;;;;5134998;27;20043;-74
2021/07/04 12:41:09;;;;;;;11.45;10.30;;;;;;;;;;5133776;27;20046;-74
2021/07/04 12:43:37;;;;;;;12.15;10.85;;;;;;;;;;5134932;27;20481;-74
2021/07/04 12:46:12;;;;;;;14.13;12.73;;;;;;;;;;5134095;27;20045;-74
2021/07/04 12:48:46;;;;;;;16.60;14.90;;;;;;;;;;5133334;27;20474;-74
2021/07/04 12:51:13;;;;;;;15.15;13.60;;;;;;;;;;5133848;27;20371;-74
2021/07/04 12:53:39;;;;;;;15.73;14.20;;;;;;;;;;5132969;27;20117;-74
2021/07/04 12:56:06;;;;;;;16.88;15.27;;;;;;;;;;5134004;27;20043;-75
2021/07/04 12:58:37;;;;;;;16.58;14.93;;;;;;;;;;5134363;27;20043;-74
2021/07/04 13:01:09;;;;;;;17.33;15.63;;;;;;;;;;5132200;27;20481;-74
2021/07/04 13:03:36;;;;;;;17.92;16.10;;;;;;;;;;5133095;27;20463;-74
2021/07/04 13:06:02;;;;;;;15.30;13.80;;;;;;;;;;5133074;27;20443;-75
2021/07/04 13:08:28;;;;;;;14.10;12.70;;;;;;;;;;5134555;27;20470;-75
2021/07/04 13:10:54;;;;;;;12.25;11.05;;;;;;;;;;5132330;27;20405;-74
2021/07/04 13:13:21;;;;;;;12.88;10.70;;;;;;;;;;5134123;27;20497;-74
2021/07/04 13:15:47;;;;;;;12.38;11.27;;;;;;;;;;5133100;27;20043;-75
2021/07/04 13:18:29;;;;;;;12.75;9.55;;;;;;;;;;5133362;27;20437;-74
2021/07/04 13:20:55;;;;;;;11.60;10.40;;;;;;;;;;5133436;27;20040;-74
2021/07/04 13:23:22;;;;;;;12.65;11.43;;;;;;;;;;5115904;27;20039;-74
2021/07/04 13:25:54;;;;;;;13.75;12.35;;;;;;;;;;5133900;27;20043;-74
2021/07/04 13:28:21;;;;;;;13.07;11.77;;;;;;;;;;5132832;27;20406;-74
2021/07/04 13:30:49;;;;;;;13.77;12.40;;;;;;;;;;5132510;27;20456;-74
2021/07/04 13:33:27;;;;;;;15.75;14.25;;;;;;;;;;5132709;27;20465;-75
2021/07/04 13:35:54;;;;;;;15.30;13.82;;;;;;;;;;5133816;27;20035;-74
2021/07/04 13:38:20;;;;;;;15.75;14.15;;;;;;;;;;5133757;27;20055;-74
2021/07/04 13:40:48;;;;;;;15.52;13.93;;;;;;;;;;5133626;27;20122;-75
2021/07/04 13:43:14;;;;;;;15.38;13.70;;;;;;;;;;5132742;27;20122;-75
2021/07/04 13:45:41;;;;;;;14.45;13.00;;;;;;;;;;5133409;27;20447;-74
2021/07/04 13:48:16;;;;;;;14.35;12.85;;;;;;;;;;5133094;27;20039;-74
2021/07/04 13:50:44;;;;;;;13.30;11.90;;;;;;;;;;5133569;27;20043;-75
2021/07/04 13:53:10;;;;;;;12.55;11.35;;;;;;;;;;5132928;27;20104;-75
2021/07/04 13:55:37;;;;;;;11.52;10.48;;;;;;;;;;5133172;27;20039;-75
2021/07/04 13:58:04;;;;;;;11.65;10.45;;;;;;;;;;5131392;27;20051;-75
2021/07/04 14:00:30;;;;;;;12.77;11.43;;;;;;;;;;5132515;27;20054;-75
2021/07/04 14:02:57;;;;;;;12.60;11.40;;;;;;;;;;5133698;27;20130;-75
2021/07/04 14:05:24;;;;;;;12.38;11.05;;;;;;;;;;5132862;27;20043;-74
2021/07/04 14:07:50;;;;;;;13.38;12.00;;;;;;;;;;5132222;28;20043;-75
2021/07/04 14:10:17;;;;;;;11.93;10.82;;;;;;;;;;5131667;28;20043;-75
2021/07/04 14:12:43;;;;;;;13.52;11.38;;;;;;;;;;5133388;27;20039;-75
2021/07/04 14:15:09;;;;;;;14.27;12.60;;;;;;;;;;5132704;28;20043;-75
2021/07/04 14:17:36;;;;;;;14.93;13.35;;;;;;;;;;5133095;27;20050;-75
2021/07/04 14:20:03;;;;;;;14.13;12.73;;;;;;;;;;5131384;28;20039;-74
2021/07/04 14:22:30;;;;;;;13.13;11.73;;;;;;;;;;5131933;28;20043;-75
2021/07/04 14:24:58;;;;;;;13.13;11.63;;;;;;;;;;5131869;28;20426;-75